createdAt,value
2023-11-15T00:00:37.409Z,100815.47
2023-11-15T00:03:04.175Z,100824.22
2023-11-15T00:05:30.998Z,100826.88
2023-11-15T00:07:57.521Z,100818.00
2023-11-15T00:10:26.885Z,100820.53
2023-11-15T00:12:55.765Z,100824.00
2023-11-15T00:15:25.404Z,100827.50
2023-11-15T00:17:54.337Z,100821.38
2023-11-15T00:20:20.977Z,100834.44
2023-11-15T00:22:49.791Z,100882.00
2023-11-15T00:25:19.106Z,100876.13
2023-11-15T00:27:48.101Z,100856.38
2023-11-15T00:30:17.804Z,100852.50
2023-11-15T00:32:46.802Z,100857.19
2023-11-15T00:35:16.011Z,100861.44
2023-11-15T00:37:43.457Z,100867.28
2023-11-15T00:40:21.795Z,100873.84
2023-11-15T00:42:49.857Z,100876.72
2023-11-15T00:45:16.674Z,100869.72
2023-11-15T00:47:45.708Z,100875.13
2023-11-15T00:50:12.359Z,100876.09
2023-11-15T00:52:38.966Z,100876.09
2023-11-15T00:55:09.023Z,100880.50
2023-11-15T00:57:40.208Z,100896.34
2023-11-15T01:00:24.780Z,100892.75
2023-11-15T01:02:52.841Z,100905.81
2023-11-15T01:05:22.080Z,100900.53
2023-11-15T01:07:49.144Z,100913.75
2023-11-15T01:10:15.914Z,100902.22
2023-11-15T01:12:42.964Z,100925.91
2023-11-15T01:15:10.087Z,100917.84
2023-11-15T01:17:36.727Z,100921.34
2023-11-15T01:20:04.836Z,100914.38
2023-11-15T01:22:31.510Z,100927.47
2023-11-15T01:25:00.709Z,100920.38
2023-11-15T01:27:27.579Z,100937.81
2023-11-15T01:29:54.133Z,100941.28
2023-11-15T01:32:20.857Z,100940.34
2023-11-15T01:34:52.999Z,100934.09
2023-11-15T01:37:21.760Z,100943.81
2023-11-15T01:39:51.987Z,100936.00
2023-11-15T01:42:20.785Z,100944.88
2023-11-15T01:44:49.878Z,100952.69
2023-11-15T01:47:16.604Z,100953.53
2023-11-15T01:49:48.028Z,100959.53
2023-11-15T01:52:15.289Z,100962.16
2023-11-15T01:54:42.394Z,100961.22
2023-11-15T01:57:11.664Z,100968.09
2023-11-15T01:59:38.757Z,100977.69
2023-11-15T02:02:10.116Z,100981.16
2023-11-15T02:04:36.588Z,100981.88
2023-11-15T02:07:03.276Z,100983.59
2023-11-15T02:09:30.940Z,100983.59
2023-11-15T02:12:00.372Z,100996.69
2023-11-15T02:14:27.075Z,100998.38
2023-11-15T02:16:56.311Z,100998.25
2023-11-15T02:19:22.980Z,101001.84
2023-11-15T02:21:49.488Z,100998.25
2023-11-15T02:24:16.312Z,100999.94
2023-11-15T02:26:47.332Z,101010.28
2023-11-15T02:29:16.467Z,101001.53
2023-11-15T02:31:42.995Z,101001.41
2023-11-15T02:34:09.722Z,101007.66
2023-11-15T02:36:36.226Z,101002.38
2023-11-15T02:39:07.340Z,101007.78
2023-11-15T02:41:34.111Z,101003.34
2023-11-15T02:44:02.882Z,101011.13
2023-11-15T02:46:29.439Z,101003.09
2023-11-15T02:48:58.583Z,101007.44
2023-11-15T02:51:27.380Z,101012.50
2023-11-15T02:53:55.150Z,101000.03
2023-11-15T02:56:22.531Z,101003.41
2023-11-15T02:58:49.141Z,100999.81
2023-11-15T03:01:17.423Z,101010.28
2023-11-15T03:03:44.308Z,101007.50
2023-11-15T03:06:10.996Z,101007.31
2023-11-15T03:08:40.019Z,101010.47
2023-11-15T03:11:08.078Z,101008.22
2023-11-15T03:13:34.661Z,101008.00
2023-11-15T03:16:03.916Z,101018.34
2023-11-15T03:18:33.311Z,101021.72
2023-11-15T03:20:59.991Z,101018.97
2023-11-15T03:23:29.051Z,101031.22
2023-11-15T03:25:57.908Z,101036.41
2023-11-15T03:28:26.636Z,101045.91
2023-11-15T03:30:53.590Z,101040.88
2023-11-15T03:33:20.307Z,101053.78
2023-11-15T03:35:47.137Z,101044.78
2023-11-15T03:38:13.659Z,101045.66
2023-11-15T03:40:40.133Z,101048.38
2023-11-15T03:43:07.267Z,101045.72
2023-11-15T03:45:36.213Z,101061.38
2023-11-15T03:48:04.375Z,101065.81
2023-11-15T03:50:31.000Z,101062.44
2023-11-15T03:52:57.681Z,101063.28
2023-11-15T03:55:24.274Z,101058.75
2023-11-15T03:57:51.595Z,101062.22
2023-11-15T04:00:18.755Z,101061.25
2023-11-15T04:02:46.698Z,101064.75
2023-11-15T04:05:14.397Z,101075.31
2023-11-15T04:07:43.821Z,101073.50
2023-11-15T04:10:11.788Z,101081.44
2023-11-15T04:12:42.290Z,101081.56
2023-11-15T04:15:11.401Z,101089.47
2023-11-15T04:17:40.466Z,101083.25
2023-11-15T04:20:10.253Z,101088.41
2023-11-15T04:22:39.529Z,101086.72
2023-11-15T04:25:06.521Z,101082.41
2023-11-15T04:27:33.120Z,101092.13
2023-11-15T04:30:02.116Z,101093.81
2023-11-15T04:32:30.976Z,101095.63
2023-11-15T04:34:59.804Z,101099.81
2023-11-15T04:37:29.447Z,101105.03
2023-11-15T04:39:59.618Z,101106.81
2023-11-15T04:42:26.264Z,101119.06
2023-11-15T04:44:52.819Z,101115.59
2023-11-15T04:47:19.849Z,101120.03
2023-11-15T04:49:46.659Z,101120.88
2023-11-15T04:52:15.652Z,101128.88
2023-11-15T04:54:42.691Z,101124.56
2023-11-15T04:57:11.618Z,101126.25
2023-11-15T04:59:38.386Z,101129.75
2023-11-15T05:02:07.845Z,101136.72
2023-11-15T05:04:37.087Z,101123.53
2023-11-15T05:07:03.777Z,101127.00
2023-11-15T05:09:30.264Z,101128.69
2023-11-15T05:11:56.747Z,101134.81
2023-11-15T05:14:23.429Z,101138.28
2023-11-15T05:16:54.751Z,101132.16
2023-11-15T05:19:21.346Z,101142.84
2023-11-15T05:21:47.885Z,101133.13
2023-11-15T05:24:16.812Z,101141.06
2023-11-15T05:26:46.422Z,101146.34
2023-11-15T05:29:15.501Z,101165.69
2023-11-15T05:31:42.172Z,101152.47
2023-11-15T05:34:08.723Z,101140.94
2023-11-15T05:36:37.495Z,101138.19
2023-11-15T05:39:10.282Z,101145.38
2023-11-15T05:41:39.161Z,101149.00
2023-11-15T05:44:06.680Z,101152.66
2023-11-15T05:46:34.989Z,101159.75
2023-11-15T05:49:04.633Z,101152.91
2023-11-15T05:51:35.081Z,101157.47
2023-11-15T05:54:06.976Z,101153.88
2023-11-15T05:56:33.678Z,101153.88
2023-11-15T05:59:03.437Z,101153.09
2023-11-15T06:01:30.036Z,101161.16
2023-11-15T06:03:56.596Z,101165.59
2023-11-15T06:06:23.784Z,101168.22
2023-11-15T06:08:50.802Z,101164.75
2023-11-15T06:11:17.498Z,101168.34
2023-11-15T06:13:44.234Z,101163.06
2023-11-15T06:16:13.318Z,101167.50
2023-11-15T06:18:43.870Z,101169.31
2023-11-15T06:21:15.257Z,101168.47
2023-11-15T06:23:44.067Z,101168.47
2023-11-15T06:26:12.460Z,101170.16
2023-11-15T06:28:42.144Z,101176.16
2023-11-15T06:31:09.137Z,101181.56
2023-11-15T06:33:39.090Z,101186.84
2023-11-15T06:36:06.401Z,101192.13
2023-11-15T06:38:35.830Z,101185.16
2023-11-15T06:41:05.641Z,101190.53
2023-11-15T06:43:32.813Z,101200.38
2023-11-15T06:45:59.333Z,101203.13
2023-11-15T06:48:26.060Z,101207.88
2023-11-15T06:50:56.878Z,101209.97
2023-11-15T06:53:23.480Z,101212.75
2023-11-15T06:55:53.969Z,101222.47
2023-11-15T06:58:22.833Z,101226.78
2023-11-15T07:00:51.050Z,101227.50
2023-11-15T07:03:19.064Z,101230.09
2023-11-15T07:05:50.287Z,101229.97
2023-11-15T07:08:17.605Z,101228.16
2023-11-15T07:10:46.501Z,101237.03
2023-11-15T07:13:15.455Z,101238.94
2023-11-15T07:15:42.086Z,101239.03
2023-11-15T07:18:08.783Z,101250.66
2023-11-15T07:20:35.628Z,101242.53
2023-11-15T07:23:10.179Z,101247.81
2023-11-15T07:25:38.962Z,101250.66
2023-11-15T07:28:06.128Z,101258.78
2023-11-15T07:30:36.324Z,101266.81
2023-11-15T07:33:02.953Z,101265.97
2023-11-15T07:35:29.931Z,101267.06
2023-11-15T07:37:57.513Z,101275.06
2023-11-15T07:40:24.084Z,101274.31
2023-11-15T07:42:53.155Z,101275.28
2023-11-15T07:45:19.946Z,101275.06
2023-11-15T07:47:48.879Z,101274.97
2023-11-15T07:50:17.040Z,101283.63
2023-11-15T07:52:46.989Z,101283.63
2023-11-15T07:55:16.456Z,101293.34
2023-11-15T07:57:43.077Z,101294.31
2023-11-15T08:00:12.531Z,101295.88
2023-11-15T08:02:39.494Z,101297.38
2023-11-15T08:05:09.060Z,101313.97
2023-11-15T08:07:37.754Z,101321.03
2023-11-15T08:10:05.889Z,101316.72
2023-11-15T08:12:38.936Z,101316.59
2023-11-15T08:15:27.325Z,101330.66
2023-11-15T08:17:57.605Z,101319.34
2023-11-15T08:20:24.365Z,101332.56
2023-11-15T08:22:53.154Z,101330.53
2023-11-15T08:25:22.685Z,101336.38
2023-11-15T08:27:49.602Z,101333.53
2023-11-15T08:30:21.258Z,101334.25
2023-11-15T08:32:53.975Z,101334.59
2023-11-15T08:35:21.675Z,101344.66
2023-11-15T08:37:53.918Z,101348.69
2023-11-15T08:40:28.946Z,101338.63
2023-11-15T08:42:56.775Z,101341.06
2023-11-15T08:45:26.891Z,101340.09
2023-11-15T08:47:59.213Z,101352.59
2023-11-15T08:50:26.390Z,101349.94
2023-11-15T08:52:55.704Z,101349.94
2023-11-15T08:55:24.976Z,101345.19
2023-11-15T08:57:53.808Z,101346.25
2023-11-15T09:00:22.916Z,101344.78
2023-11-15T09:02:50.184Z,101351.31
2023-11-15T09:05:20.835Z,101353.44
2023-11-15T09:07:47.482Z,101355.31
2023-11-15T09:10:15.065Z,101357.44
2023-11-15T09:12:47.248Z,101350.84
2023-11-15T09:15:16.601Z,101346.97
2023-11-15T09:17:48.053Z,101347.69
2023-11-15T09:20:27.521Z,101343.25
2023-11-15T09:22:59.743Z,101342.41
2023-11-15T09:25:28.373Z,101351.09
2023-11-15T09:28:00.385Z,101346.53
2023-11-15T09:30:27.575Z,101350.66
2023-11-15T09:32:57.120Z,101353.78
2023-11-15T09:35:29.178Z,101353.69
2023-11-15T09:37:59.948Z,101358.75
2023-11-15T09:40:28.035Z,101362.03
2023-11-15T09:42:56.624Z,101361.69
2023-11-15T09:45:26.940Z,101358.72
2023-11-15T09:47:55.337Z,101363.81
2023-11-15T09:50:26.007Z,101372.22
2023-11-15T09:53:00.655Z,101362.53
2023-11-15T09:55:30.049Z,101366.72
2023-11-15T09:57:56.915Z,101374.88
2023-11-15T10:00:30.730Z,101369.59
2023-11-15T10:03:00.359Z,101374.13
2023-11-15T10:05:28.482Z,101369.53
2023-11-15T10:08:16.628Z,101372.19
2023-11-15T10:10:49.087Z,101381.78
2023-11-15T10:13:17.671Z,101372.63
2023-11-15T10:15:45.739Z,101375.28
2023-11-15T10:18:15.517Z,101371.69
2023-11-15T10:20:46.232Z,101377.38
2023-11-15T10:23:13.595Z,101374.13
2023-11-15T10:25:52.597Z,101374.50
2023-11-15T10:28:27.320Z,101369.22
2023-11-15T10:31:07.583Z,101374.41
2023-11-15T10:33:36.291Z,101374.31
2023-11-15T10:36:24.279Z,101373.63
2023-11-15T10:39:00.715Z,101387.25
2023-11-15T10:41:32.231Z,101381.22
2023-11-15T10:43:58.764Z,101387.00
2023-11-15T10:46:30.466Z,101380.56
2023-11-15T10:48:59.085Z,101387.94
2023-11-15T10:51:42.508Z,101392.28
2023-11-15T10:54:18.315Z,101385.28
2023-11-15T10:56:50.669Z,101396.84
2023-11-15T10:59:20.055Z,101400.34
2023-11-15T11:01:47.414Z,101396.13
2023-11-15T11:04:17.482Z,101403.47
2023-11-15T11:07:15.320Z,101388.88
2023-11-15T11:09:57.141Z,101386.59
2023-11-15T11:12:23.912Z,101382.13
2023-11-15T11:15:26.769Z,101391.66
2023-11-15T11:18:17.105Z,101390.81
2023-11-15T11:21:01.238Z,101392.44
2023-11-15T11:23:34.811Z,101399.94
2023-11-15T11:26:48.561Z,101402.66
2023-11-15T11:29:19.132Z,101402.78
2023-11-15T11:32:33.131Z,101401.78
2023-11-15T11:35:05.969Z,101397.19
2023-11-15T11:37:51.577Z,101392.44
2023-11-15T11:40:19.201Z,101400.72
2023-11-15T11:42:49.878Z,101409.72
2023-11-15T11:45:21.226Z,101412.50
2023-11-15T11:47:48.559Z,101414.31
2023-11-15T11:50:19.408Z,101412.16
2023-11-15T11:52:46.077Z,101412.91
2023-11-15T11:55:15.606Z,101411.09
2023-11-15T11:57:44.833Z,101400.72
2023-11-15T12:00:19.465Z,101404.66
2023-11-15T12:03:00.960Z,101410.28
2023-11-15T12:05:33.261Z,101410.75
2023-11-15T12:08:02.246Z,101415.44
2023-11-15T12:10:29.041Z,101408.03
2023-11-15T12:13:02.074Z,101417.59
2023-11-15T12:15:31.165Z,101409.88
2023-11-15T12:18:00.259Z,101411.56
2023-11-15T12:20:35.118Z,101409.75
2023-11-15T12:23:07.180Z,101410.38
2023-11-15T12:25:34.201Z,101406.56
2023-11-15T12:28:03.527Z,101411.72
2023-11-15T12:30:38.004Z,101411.91
2023-11-15T12:33:04.856Z,101408.03
2023-11-15T12:35:35.201Z,101408.78
2023-11-15T12:38:10.419Z,101414.56
2023-11-15T12:40:39.948Z,101410.03
2023-11-15T12:43:22.978Z,101412.91
2023-11-15T12:45:55.590Z,101402.41
2023-11-15T12:48:22.216Z,101406.03
2023-11-15T12:50:49.588Z,101408.94
2023-11-15T12:53:19.358Z,101414.75
2023-11-15T12:55:51.273Z,101413.47
2023-11-15T12:58:21.062Z,101417.81
2023-11-15T13:01:02.564Z,101419.94
2023-11-15T13:03:36.586Z,101420.63
2023-11-15T13:06:13.543Z,101432.25
2023-11-15T13:08:54.075Z,101432.38
2023-11-15T13:11:28.128Z,101423.75
2023-11-15T13:13:59.657Z,101432.44
2023-11-15T13:16:26.641Z,101438.50
2023-11-15T13:18:53.527Z,101435.22
2023-11-15T13:21:25.590Z,101439.69
2023-11-15T13:23:55.784Z,101439.03
2023-11-15T13:26:24.711Z,101440.94
2023-11-15T13:28:51.593Z,101450.03
2023-11-15T13:31:25.065Z,101426.47
2023-11-15T13:33:53.800Z,101439.00
2023-11-15T13:36:21.015Z,101446.22
2023-11-15T13:38:48.388Z,101441.13
2023-11-15T13:41:18.587Z,101448.34
2023-11-15T13:43:48.480Z,101438.59
2023-11-15T13:46:15.716Z,101444.84
2023-11-15T13:48:47.406Z,101445.81
2023-11-15T13:51:19.261Z,101447.81
2023-11-15T13:53:45.924Z,101460.38
2023-11-15T13:56:14.025Z,101450.13
2023-11-15T13:58:41.313Z,101456.38
2023-11-15T14:01:09.279Z,101451.41
2023-11-15T14:03:35.875Z,101449.06
2023-11-15T14:06:06.354Z,101455.41
2023-11-15T14:08:51.319Z,101462.69
2023-11-15T14:11:29.109Z,101461.19
2023-11-15T14:13:55.779Z,101463.22
2023-11-15T14:16:24.215Z,101467.75
2023-11-15T14:18:51.357Z,101466.41
2023-11-15T14:21:21.282Z,101474.31
2023-11-15T14:23:50.583Z,101469.88
2023-11-15T14:26:17.150Z,101476.84
2023-11-15T14:28:45.023Z,101474.63
2023-11-15T14:31:18.777Z,101478.22
2023-11-15T14:33:45.541Z,101488.81
2023-11-15T14:36:17.135Z,101487.19
2023-11-15T14:38:46.011Z,101484.53
2023-11-15T14:41:13.192Z,101484.44
2023-11-15T14:43:41.187Z,101488.81
2023-11-15T14:46:08.590Z,101489.53
2023-11-15T14:48:35.297Z,101486.16
2023-11-15T14:51:05.671Z,101485.31
2023-11-15T14:53:41.120Z,101478.97
2023-11-15T14:56:09.939Z,101477.03
2023-11-15T14:58:36.598Z,101482.25
2023-11-15T15:01:04.770Z,101483.94
2023-11-15T15:03:31.711Z,101500.66
2023-11-15T15:06:00.465Z,101494.19
2023-11-15T15:08:29.249Z,101505.44
2023-11-15T15:10:56.721Z,101502.78
2023-11-15T15:13:23.577Z,101500.34
2023-11-15T15:15:50.469Z,101504.03
2023-11-15T15:18:25.807Z,101504.25
2023-11-15T15:20:59.195Z,101506.13
2023-11-15T15:23:27.009Z,101502.00
2023-11-15T15:25:58.384Z,101500.63
2023-11-15T15:28:27.558Z,101503.25
2023-11-15T15:30:56.752Z,101490.22
2023-11-15T15:33:23.498Z,101501.03
2023-11-15T15:35:52.836Z,101506.19
2023-11-15T15:38:19.446Z,101503.56
2023-11-15T15:40:51.832Z,101513.06
2023-11-15T15:43:22.995Z,101515.94
2023-11-15T15:45:49.659Z,101522.34
2023-11-15T15:48:16.539Z,101519.94
2023-11-15T15:50:44.576Z,101515.03
2023-11-15T15:53:11.252Z,101522.31
2023-11-15T15:55:37.931Z,101517.31
2023-11-15T15:58:06.924Z,101524.59
2023-11-15T16:00:33.752Z,101515.84
2023-11-15T16:03:02.891Z,101510.72
2023-11-15T16:05:31.685Z,101527.75
2023-11-15T16:08:00.962Z,101521.06
2023-11-15T16:10:27.573Z,101518.03
2023-11-15T16:12:54.162Z,101531.72
2023-11-15T16:15:21.009Z,101531.09
2023-11-15T16:17:50.610Z,101528.47
2023-11-15T16:20:18.520Z,101535.72
2023-11-15T16:22:47.520Z,101531.47
2023-11-15T16:25:14.259Z,101532.50
2023-11-15T16:27:41.338Z,101530.91
2023-11-15T16:30:15.185Z,101532.59
2023-11-15T16:32:44.698Z,101530.91
2023-11-15T16:35:13.957Z,101526.47
2023-11-15T16:37:43.446Z,101528.16
2023-11-15T16:40:16.363Z,101536.00
2023-11-15T16:42:48.077Z,101532.50
2023-11-15T16:45:15.136Z,101535.13
2023-11-15T16:47:44.430Z,101535.88
2023-11-15T16:50:11.230Z,101538.53
2023-11-15T16:52:37.797Z,101540.03
2023-11-15T16:55:05.093Z,101534.66
2023-11-15T16:57:34.084Z,101545.22
2023-11-15T17:00:00.921Z,101544.38
2023-11-15T17:02:27.831Z,101545.31
2023-11-15T17:04:54.582Z,101547.97
2023-11-15T17:07:21.143Z,101553.25
2023-11-15T17:09:51.977Z,101550.81
2023-11-15T17:12:19.236Z,101553.53
2023-11-15T17:14:45.750Z,101559.00
2023-11-15T17:17:14.402Z,101560.91
2023-11-15T17:19:43.331Z,101564.28
2023-11-15T17:22:15.178Z,101565.97
2023-11-15T17:24:46.790Z,101552.09
2023-11-15T17:27:15.618Z,101558.34
2023-11-15T17:29:42.391Z,101562.03
2023-11-15T17:32:11.306Z,101563.16
2023-11-15T17:34:37.914Z,101570.31
2023-11-15T17:37:07.780Z,101562.50
2023-11-15T17:39:34.412Z,101565.22
2023-11-15T17:42:01.236Z,101566.28
2023-11-15T17:44:30.843Z,101564.56
2023-11-15T17:46:59.852Z,101560.13
2023-11-15T17:49:26.489Z,101551.38
2023-11-15T17:51:54.527Z,101568.16
2023-11-15T17:54:22.709Z,101562.94
2023-11-15T17:56:51.868Z,101563.06
2023-11-15T17:59:18.501Z,101568.34
2023-11-15T18:01:49.724Z,101560.50
2023-11-15T18:04:18.792Z,101565.06
2023-11-15T18:06:45.925Z,101556.34
2023-11-15T18:09:12.987Z,101562.47
2023-11-15T18:11:39.718Z,101558.16
2023-11-15T18:14:08.448Z,101558.25
2023-11-15T18:16:37.486Z,101556.56
2023-11-15T18:19:09.614Z,101558.34
2023-11-15T18:21:36.791Z,101561.06
2023-11-15T18:24:05.778Z,101554.00
2023-11-15T18:26:33.781Z,101554.09
2023-11-15T18:29:02.772Z,101552.41
2023-11-15T18:31:31.973Z,101555.13
2023-11-15T18:33:59.534Z,101555.25
2023-11-15T18:36:31.205Z,101551.72
2023-11-15T18:39:01.725Z,101560.59
2023-11-15T18:41:30.664Z,101562.38
2023-11-15T18:44:00.931Z,101558.88
2023-11-15T18:46:30.306Z,101569.44
2023-11-15T18:48:59.725Z,101569.44
2023-11-15T18:51:31.396Z,101574.63
2023-11-15T18:54:02.605Z,101578.09
2023-11-15T18:56:29.350Z,101572.09
2023-11-15T18:58:58.290Z,101575.56
2023-11-15T19:01:27.572Z,101575.56
2023-11-15T19:03:58.000Z,101571.22
2023-11-15T19:06:27.426Z,101567.66
2023-11-15T19:08:56.857Z,101568.59
2023-11-15T19:11:23.366Z,101571.13
2023-11-15T19:13:49.905Z,101564.16
2023-11-15T19:16:20.050Z,101565.78
2023-11-15T19:18:47.587Z,101571.91
2023-11-15T19:21:20.061Z,101568.31
2023-11-15T19:23:46.668Z,101569.28
2023-11-15T19:26:14.006Z,101564.91
2023-11-15T19:28:42.953Z,101572.81
2023-11-15T19:31:17.870Z,101567.56
2023-11-15T19:33:44.403Z,101566.69
2023-11-15T19:36:11.030Z,101569.34
2023-11-15T19:38:38.465Z,101576.34
2023-11-15T19:41:07.915Z,101570.97
2023-11-15T19:43:34.485Z,101570.19
2023-11-15T19:46:04.141Z,101580.69
2023-11-15T19:48:31.473Z,101572.75
2023-11-15T19:50:59.911Z,101578.88
2023-11-15T19:53:27.223Z,101564.91
2023-11-15T19:55:55.526Z,101564.06
2023-11-15T19:58:22.797Z,101554.47
2023-11-15T20:00:51.670Z,101560.59
2023-11-15T20:03:18.800Z,101563.22
2023-11-15T20:05:47.853Z,101561.44
2023-11-15T20:08:17.261Z,101556.09
2023-11-15T20:10:52.618Z,101557.00
2023-11-15T20:13:21.434Z,101563.16
2023-11-15T20:15:50.721Z,101561.34
2023-11-15T20:18:19.722Z,101564.00
2023-11-15T20:20:48.997Z,101559.63
2023-11-15T20:23:21.471Z,101562.28
2023-11-15T20:25:48.414Z,101561.44
2023-11-15T20:28:17.481Z,101560.50
2023-11-15T20:30:44.703Z,101557.00
2023-11-15T20:33:13.703Z,101564.06
2023-11-15T20:35:44.114Z,101564.16
2023-11-15T20:38:11.408Z,101571.91
2023-11-15T20:40:37.881Z,101574.56
2023-11-15T20:43:06.077Z,101583.38
2023-11-15T20:45:32.804Z,101574.72
2023-11-15T20:48:03.607Z,101580.19
2023-11-15T20:50:30.549Z,101573.28
2023-11-15T20:52:57.195Z,101573.41
2023-11-15T20:55:25.489Z,101567.38
2023-11-15T20:57:52.192Z,101570.00
2023-11-15T21:00:26.937Z,101568.25
2023-11-15T21:02:57.633Z,101566.50
2023-11-15T21:05:24.390Z,101562.00
2023-11-15T21:07:51.474Z,101562.75
2023-11-15T21:10:20.419Z,101553.03
2023-11-15T21:12:49.408Z,101560.88
2023-11-15T21:15:16.833Z,101557.28
2023-11-15T21:17:44.689Z,101558.25
2023-11-15T21:20:13.071Z,101555.66
2023-11-15T21:22:45.826Z,101565.28
2023-11-15T21:25:14.972Z,101555.50
2023-11-15T21:27:44.587Z,101547.69
2023-11-15T21:30:13.368Z,101556.34
2023-11-15T21:32:41.526Z,101551.81
2023-11-15T21:35:12.132Z,101557.66
2023-11-15T21:37:43.740Z,101553.25
2023-11-15T21:40:19.659Z,101562.84
2023-11-15T21:42:52.813Z,101554.88
2023-11-15T21:45:20.921Z,101560.03
2023-11-15T21:47:50.512Z,101559.00
2023-11-15T21:50:22.675Z,101552.03
2023-11-15T21:52:54.466Z,101550.22
2023-11-15T21:55:21.033Z,101551.06
2023-11-15T21:57:47.706Z,101545.69
2023-11-15T22:00:22.266Z,101554.38
2023-11-15T22:02:49.937Z,101541.19
2023-11-15T22:05:19.069Z,101541.19
2023-11-15T22:07:45.651Z,101544.84
2023-11-15T22:10:14.115Z,101536.09
2023-11-15T22:12:40.957Z,101536.94
2023-11-15T22:15:10.452Z,101529.78
2023-11-15T22:17:39.070Z,101535.06
2023-11-15T22:20:09.055Z,101527.16
2023-11-15T22:22:37.150Z,101534.28
2023-11-15T22:25:04.594Z,101520.09
2023-11-15T22:27:31.300Z,101513.00
2023-11-15T22:29:57.997Z,101523.66
2023-11-15T22:32:28.238Z,101537.59
2023-11-15T22:34:57.751Z,101536.50
2023-11-15T22:37:24.405Z,101539.13
2023-11-15T22:39:50.980Z,101536.38
2023-11-15T22:42:19.168Z,101550.31
2023-11-15T22:44:45.905Z,101548.63
2023-11-15T22:47:13.711Z,101546.84
2023-11-15T22:49:40.217Z,101551.84
2023-11-15T22:52:09.469Z,101546.47
2023-11-15T22:54:38.418Z,101558.06
2023-11-15T22:57:04.985Z,101561.56
2023-11-15T22:59:31.714Z,101561.56
2023-11-15T23:01:58.220Z,101561.34
2023-11-15T23:04:27.754Z,101553.44
2023-11-15T23:06:55.474Z,101556.00
2023-11-15T23:09:22.691Z,101561.94
2023-11-15T23:11:51.955Z,101562.59
2023-11-15T23:14:19.676Z,101560.81
2023-11-15T23:16:46.513Z,101551.94
2023-11-15T23:19:17.954Z,101558.06
2023-11-15T23:21:55.343Z,101559.75
2023-11-15T23:24:29.449Z,101559.75
2023-11-15T23:26:59.948Z,101567.78
2023-11-15T23:29:30.405Z,101566.81
2023-11-15T23:32:01.006Z,101553.72
2023-11-15T23:34:28.032Z,101567.78
2023-11-15T23:36:57.263Z,101565.13
2023-11-15T23:39:24.268Z,101558.06
2023-11-15T23:41:53.447Z,101554.56
2023-11-15T23:44:20.221Z,101562.50
2023-11-15T23:46:52.949Z,101557.31
2023-11-15T23:49:19.764Z,101565.88
2023-11-15T23:51:48.556Z,101567.66
2023-11-15T23:54:18.357Z,101561.53
2023-11-15T23:56:45.532Z,101559.75
2023-11-15T23:59:12.120Z,101562.38
